createdAt,value
2023-02-17T00:01:34.273Z,8.73
2023-02-17T00:04:52.635Z,8.72
2023-02-17T00:08:12.539Z,8.71
2023-02-17T00:11:07.248Z,8.65
2023-02-17T00:14:37.905Z,8.55
2023-02-17T00:20:45.277Z,8.43
2023-02-17T00:23:28.661Z,8.36
2023-02-17T00:26:28.603Z,8.30
2023-02-17T00:29:10.330Z,8.24
2023-02-17T00:32:19.612Z,8.20
2023-02-17T00:38:11.785Z,8.14
2023-02-17T00:40:58.636Z,8.11
2023-02-17T00:43:50.359Z,8.12
2023-02-17T00:53:54.845Z,8.02
2023-02-17T00:57:20.886Z,7.97
2023-02-17T01:03:25.369Z,7.94
2023-02-17T01:06:44.452Z,7.94
2023-02-17T01:10:10.319Z,7.93
2023-02-17T01:13:10.564Z,7.92
2023-02-17T01:16:11.887Z,7.91
2023-02-17T01:19:04.465Z,7.92
2023-02-17T01:21:55.871Z,7.94
2023-02-17T01:24:41.782Z,7.93
2023-02-17T01:28:00.916Z,7.94
2023-02-17T01:31:01.942Z,7.96
2023-02-17T01:34:21.610Z,7.98
2023-02-17T01:37:18.883Z,8.01
2023-02-17T01:40:12.632Z,8.02
2023-02-17T01:47:42.138Z,8.01
2023-02-17T01:50:40.526Z,8.04
2023-02-17T01:56:58.945Z,8.11
2023-02-17T01:59:51.912Z,8.09
2023-02-17T02:02:34.453Z,8.09
2023-02-17T02:05:14.592Z,8.05
2023-02-17T02:08:06.526Z,8.01
2023-02-17T02:14:14.184Z,7.90
2023-02-17T02:17:21.425Z,7.84
2023-02-17T02:24:09.952Z,7.77
2023-02-17T02:27:31.547Z,7.72
2023-02-17T02:31:19.191Z,7.68
2023-02-17T02:34:52.609Z,7.65
2023-02-17T02:37:59.368Z,7.62
2023-02-17T02:41:12.788Z,7.63
2023-02-17T02:44:08.009Z,7.60
2023-02-17T02:50:22.666Z,7.61
2023-02-17T02:57:43.150Z,7.58
2023-02-17T03:01:25.738Z,7.56
2023-02-17T03:05:06.979Z,7.53
2023-02-17T03:08:44.194Z,7.53
2023-02-17T03:15:18.038Z,7.50
2023-02-17T03:18:07.754Z,7.50
2023-02-17T03:21:21.810Z,7.48
2023-02-17T03:24:47.512Z,7.50
2023-02-17T03:27:45.743Z,7.53
2023-02-17T03:30:32.217Z,7.54
2023-02-17T03:34:04.161Z,7.55
2023-02-17T03:37:10.358Z,7.54
2023-02-17T03:40:54.902Z,7.56
2023-02-17T03:43:40.226Z,7.57
2023-02-17T03:46:28.462Z,7.57
2023-02-17T03:49:50.198Z,7.57
2023-02-17T03:57:25.151Z,7.58
2023-02-17T04:00:12.909Z,7.59
2023-02-17T04:03:03.138Z,7.59
2023-02-17T04:06:07.027Z,7.57
2023-02-17T04:09:22.218Z,7.57
2023-02-17T04:12:24.545Z,7.58
2023-02-17T04:15:48.287Z,7.58
2023-02-17T04:18:59.161Z,7.60
2023-02-17T04:21:46.316Z,7.62
2023-02-17T04:24:28.988Z,7.61
2023-02-17T04:27:09.885Z,7.62
2023-02-17T04:33:16.163Z,7.64
2023-02-17T04:39:31.466Z,7.64
2023-02-17T04:42:33.321Z,7.63
2023-02-17T04:49:12.015Z,7.62
2023-02-17T04:52:05.682Z,7.63
2023-02-17T04:55:08.060Z,7.65
2023-02-17T04:58:00.813Z,7.65
2023-02-17T05:01:24.821Z,7.66
2023-02-17T05:03:52.508Z,7.67
2023-02-17T05:06:38.039Z,7.68
2023-02-17T05:09:20.192Z,7.69
2023-02-17T05:12:18.215Z,7.71
2023-02-17T05:18:09.601Z,7.68
2023-02-17T05:20:52.484Z,7.67
2023-02-17T05:23:46.664Z,7.67
2023-02-17T05:27:18.173Z,7.68
2023-02-17T05:30:16.272Z,7.69
2023-02-17T05:36:59.094Z,7.69
2023-02-17T05:39:44.951Z,7.71
2023-02-17T05:42:46.694Z,7.72
2023-02-17T05:45:46.849Z,7.73
2023-02-17T05:49:08.290Z,7.75
2023-02-17T05:52:14.880Z,7.77
2023-02-17T05:55:00.463Z,7.79
2023-02-17T05:58:06.439Z,7.82
2023-02-17T06:11:48.978Z,7.91
2023-02-17T06:19:12.959Z,7.93
2023-02-17T06:22:21.172Z,7.94
2023-02-17T06:23:09.324Z,7.91
2023-02-17T06:25:20.218Z,7.95
2023-02-17T06:28:11.994Z,7.96
2023-02-17T06:35:01.916Z,8.01
2023-02-17T06:38:24.569Z,8.07
2023-02-17T06:41:22.022Z,8.14
2023-02-17T06:44:47.789Z,8.18
2023-02-17T06:47:58.014Z,8.21
2023-02-17T06:51:07.859Z,8.24
2023-02-17T06:54:19.519Z,8.27
2023-02-17T07:00:18.404Z,8.43
2023-02-17T07:03:13.169Z,8.45
2023-02-17T07:06:25.963Z,8.51
2023-02-17T07:09:34.405Z,8.55
2023-02-17T07:19:23.702Z,8.67
2023-02-17T07:22:36.714Z,8.73
2023-02-17T07:25:21.014Z,8.78
2023-02-17T07:32:16.243Z,8.87
2023-02-17T07:35:25.786Z,8.95
2023-02-17T07:38:47.668Z,9.03
2023-02-17T07:41:36.153Z,9.10
2023-02-17T07:44:35.731Z,9.18
2023-02-17T07:47:26.333Z,9.22
2023-02-17T07:57:15.702Z,9.38
2023-02-17T08:00:14.954Z,9.49
2023-02-17T08:03:07.262Z,9.54
2023-02-17T08:05:43.807Z,9.60
2023-02-17T08:08:53.088Z,9.62
2023-02-17T08:11:45.017Z,9.66
2023-02-17T08:14:28.488Z,9.68
2023-02-17T08:17:27.371Z,9.69
2023-02-17T08:20:25.693Z,9.69
2023-02-17T08:23:18.837Z,9.73
2023-02-17T08:34:36.231Z,9.82
2023-02-17T08:37:50.482Z,9.81
2023-02-17T08:40:29.287Z,9.83
2023-02-17T08:43:23.300Z,9.81
2023-02-17T08:46:05.951Z,9.81
2023-02-17T08:52:04.824Z,9.78
2023-02-17T08:55:09.506Z,9.78
2023-02-17T08:58:30.778Z,9.80
2023-02-17T09:01:56.127Z,9.80
2023-02-17T09:05:15.501Z,9.81
2023-02-17T09:11:54.117Z,9.84
2023-02-17T09:18:17.259Z,9.81
2023-02-17T09:21:24.393Z,9.80
2023-02-17T09:27:43.829Z,9.83
2023-02-17T09:30:46.389Z,9.83
2023-02-17T09:36:57.205Z,9.85
2023-02-17T09:39:34.747Z,9.83
2023-02-17T09:42:26.680Z,9.84
2023-02-17T09:45:18.896Z,9.85
2023-02-17T09:48:30.093Z,9.84
2023-02-17T09:51:32.400Z,9.84
2023-02-17T09:54:35.444Z,9.85
2023-02-17T09:57:51.671Z,9.84
2023-02-17T10:01:13.760Z,9.84
2023-02-17T10:04:22.167Z,9.82
2023-02-17T10:07:30.991Z,9.85
2023-02-17T10:10:39.688Z,9.86
2023-02-17T10:13:59.130Z,9.85
2023-02-17T10:17:19.707Z,9.81
2023-02-17T10:28:29.584Z,9.89
2023-02-17T10:31:40.037Z,9.93
2023-02-17T10:39:00.853Z,9.96
2023-02-17T10:42:19.441Z,10.05
2023-02-17T10:52:50.236Z,10.21
2023-02-17T10:59:56.849Z,10.31
2023-02-17T11:03:23.641Z,10.35
2023-02-17T11:06:51.534Z,10.41
2023-02-17T11:10:17.464Z,10.46
2023-02-17T11:13:09.336Z,10.52
2023-02-17T11:16:02.761Z,10.56
2023-02-17T11:19:09.398Z,10.60
2023-02-17T11:21:58.251Z,10.68
2023-02-17T11:28:50.587Z,10.73
2023-02-17T11:32:22.302Z,10.78
2023-02-17T11:35:54.080Z,10.84
2023-02-17T11:39:05.301Z,10.91
2023-02-17T11:41:52.391Z,10.99
2023-02-17T11:45:08.078Z,11.03
2023-02-17T11:48:17.381Z,11.08
2023-02-17T11:51:13.905Z,11.14
2023-02-17T11:58:16.174Z,11.20
2023-02-17T12:01:45.731Z,11.23
2023-02-17T12:05:03.261Z,11.27
2023-02-17T12:12:18.612Z,11.32
2023-02-17T12:19:37.170Z,11.47
2023-02-17T12:22:50.107Z,11.56
2023-02-17T12:29:37.510Z,11.69
2023-02-17T12:31:42.327Z,11.37
2023-02-17T12:33:00.322Z,11.75
2023-02-17T12:36:20.053Z,11.82
2023-02-17T12:39:57.215Z,11.89
2023-02-17T12:43:40.364Z,11.98
2023-02-17T12:47:20.395Z,12.06
2023-02-17T12:50:14.936Z,12.20
2023-02-17T12:53:06.876Z,12.29
2023-02-17T12:56:17.457Z,12.38
2023-02-17T12:59:39.599Z,12.46
2023-02-17T13:02:31.969Z,12.53
2023-02-17T13:05:20.383Z,12.54
2023-02-17T13:08:51.332Z,12.54
2023-02-17T13:11:41.321Z,12.50
2023-02-17T13:14:59.410Z,12.50
2023-02-17T13:18:39.210Z,12.49
2023-02-17T13:21:34.218Z,12.47
2023-02-17T13:24:40.631Z,12.52
2023-02-17T13:27:40.916Z,12.55
2023-02-17T13:30:58.972Z,12.58
2023-02-17T13:34:36.828Z,12.64
2023-02-17T13:37:47.789Z,12.70
2023-02-17T13:43:32.469Z,12.81
2023-02-17T13:50:05.221Z,12.89
2023-02-17T13:53:00.163Z,12.91
2023-02-17T13:55:55.393Z,12.90
2023-02-17T13:58:42.358Z,12.96
2023-02-17T14:04:58.163Z,12.96
2023-02-17T14:10:08.639Z,12.97
2023-02-17T14:13:56.355Z,12.97
2023-02-17T14:17:11.639Z,12.99
2023-02-17T14:20:02.508Z,12.99
2023-02-17T14:23:04.299Z,13.01
2023-02-17T14:25:57.845Z,13.03
2023-02-17T14:28:56.629Z,13.06
2023-02-17T14:32:07.266Z,13.06
2023-02-17T14:34:48.098Z,13.06
2023-02-17T14:37:40.882Z,13.04
2023-02-17T14:44:09.887Z,13.03
2023-02-17T14:48:27.594Z,13.02
2023-02-17T14:49:50.805Z,13.02
2023-02-17T14:59:15.402Z,12.46
2023-02-17T15:02:00.608Z,12.26
2023-02-17T15:08:11.778Z,12.00
2023-02-17T15:11:00.535Z,11.90
2023-02-17T15:13:54.771Z,11.82
2023-02-17T15:16:21.794Z,11.75
2023-02-17T15:18:50.864Z,11.71
2023-02-17T15:21:35.466Z,11.67
2023-02-17T15:24:03.753Z,11.64
2023-02-17T15:26:32.577Z,11.64
2023-02-17T15:28:59.972Z,11.63
2023-02-17T15:31:29.900Z,11.62
2023-02-17T15:33:59.690Z,11.61
2023-02-17T15:36:28.860Z,11.58
2023-02-17T15:38:55.911Z,11.55
2023-02-17T15:41:29.975Z,11.55
2023-02-17T15:43:58.577Z,11.53
2023-02-17T15:46:31.598Z,11.52
2023-02-17T15:48:59.476Z,11.52
2023-02-17T15:51:26.397Z,11.52
2023-02-17T15:53:54.318Z,11.52
2023-02-17T15:56:30.517Z,11.51
2023-02-17T15:59:00.700Z,11.52
2023-02-17T16:01:32.741Z,11.52
2023-02-17T16:04:00.139Z,11.52
2023-02-17T16:06:28.787Z,11.52
2023-02-17T16:08:58.780Z,11.55
2023-02-17T16:11:26.757Z,11.56
2023-02-17T16:13:55.152Z,11.56
2023-02-17T16:16:32.320Z,11.58
2023-02-17T16:19:01.082Z,11.59
2023-02-17T16:21:28.327Z,11.60
2023-02-17T16:23:59.781Z,11.63
2023-02-17T16:26:34.575Z,11.65
2023-02-17T16:29:17.151Z,11.68
2023-02-17T16:31:44.790Z,11.70
2023-02-17T16:34:22.559Z,11.69
2023-02-17T16:36:53.010Z,11.69
2023-02-17T16:39:21.532Z,11.69
2023-02-17T16:41:49.498Z,11.71
2023-02-17T16:44:20.401Z,11.74
2023-02-17T16:46:59.457Z,11.76
2023-02-17T16:49:34.184Z,11.79
2023-02-17T16:52:07.322Z,11.83
2023-02-17T16:54:35.757Z,11.85
2023-02-17T16:57:02.898Z,11.87
2023-02-17T16:59:29.863Z,11.94
2023-02-17T17:01:56.850Z,11.93
2023-02-17T17:04:24.506Z,11.92
2023-02-17T17:06:52.596Z,11.91
2023-02-17T17:09:25.431Z,11.89
2023-02-17T17:11:52.304Z,11.89
2023-02-17T17:14:21.523Z,11.90
2023-02-17T17:16:57.049Z,11.87
2023-02-17T17:19:24.267Z,11.84
2023-02-17T17:21:51.202Z,11.84
2023-02-17T17:24:18.149Z,11.82
2023-02-17T17:26:47.977Z,11.81
2023-02-17T17:29:17.828Z,11.81
2023-02-17T17:31:45.290Z,11.77
2023-02-17T17:34:12.340Z,11.74
2023-02-17T17:36:43.400Z,11.75
2023-02-17T17:39:20.474Z,11.74
2023-02-17T17:41:48.313Z,11.82
2023-02-17T17:44:15.541Z,11.86
2023-02-17T17:46:42.721Z,11.86
2023-02-17T17:49:13.382Z,11.88
2023-02-17T17:51:40.959Z,11.91
2023-02-17T17:54:08.283Z,11.93
2023-02-17T17:56:39.341Z,11.95
2023-02-17T17:59:06.730Z,11.99
2023-02-17T18:01:34.062Z,12.01
2023-02-17T18:04:02.156Z,12.03
2023-02-17T18:06:40.970Z,12.02
2023-02-17T18:09:25.852Z,12.07
2023-02-17T18:11:59.668Z,12.24
2023-02-17T18:14:26.671Z,12.19
2023-02-17T18:16:53.624Z,12.09
2023-02-17T18:19:20.922Z,11.98
2023-02-17T18:21:47.988Z,11.83
2023-02-17T18:24:14.963Z,11.65
2023-02-17T18:26:41.967Z,11.48
2023-02-17T18:29:08.964Z,11.35
2023-02-17T18:31:35.973Z,11.22
2023-02-17T18:34:03.416Z,11.13
2023-02-17T18:36:30.426Z,11.06
2023-02-17T18:38:57.402Z,10.95
2023-02-17T18:41:30.896Z,10.87
2023-02-17T18:44:00.889Z,10.81
2023-02-17T18:46:28.574Z,10.78
2023-02-17T18:48:56.252Z,10.71
2023-02-17T18:51:25.820Z,10.61
2023-02-17T18:53:54.751Z,10.51
2023-02-17T18:56:25.117Z,10.44
2023-02-17T18:58:55.338Z,10.42
2023-02-17T19:01:35.927Z,10.42
2023-02-17T19:04:04.814Z,10.42
2023-02-17T19:06:34.779Z,10.39
2023-02-17T19:09:04.331Z,10.37
2023-02-17T19:11:32.420Z,10.34
2023-02-17T19:14:02.348Z,10.35
2023-02-17T19:16:31.975Z,10.35
2023-02-17T19:18:59.883Z,10.34
2023-02-17T19:21:27.452Z,10.31
2023-02-17T19:23:54.790Z,10.26
2023-02-17T19:26:22.082Z,10.21
2023-02-17T19:28:49.455Z,10.16
2023-02-17T19:31:19.506Z,10.11
2023-02-17T19:33:47.051Z,10.04
2023-02-17T19:36:18.602Z,10.00
2023-02-17T19:38:46.873Z,9.96
2023-02-17T19:41:15.349Z,9.87
2023-02-17T19:43:43.540Z,9.81
2023-02-17T19:46:20.949Z,9.75
2023-02-17T19:48:47.961Z,9.72
2023-02-17T19:51:15.004Z,9.67
2023-02-17T19:53:45.742Z,9.63
2023-02-17T19:56:23.137Z,9.57
2023-02-17T19:58:51.145Z,9.54
2023-02-17T20:01:25.518Z,9.48
2023-02-17T20:03:54.625Z,9.42
2023-02-17T20:06:26.263Z,9.37
2023-02-17T20:09:03.795Z,9.33
2023-02-17T20:11:32.264Z,9.28
2023-02-17T20:14:01.564Z,9.22
2023-02-17T20:16:29.648Z,9.17
2023-02-17T20:18:56.879Z,9.13
2023-02-17T20:21:28.161Z,9.11
2023-02-17T20:23:55.749Z,9.11
2023-02-17T20:26:27.321Z,9.05
2023-02-17T20:28:54.740Z,9.00
2023-02-17T20:31:22.856Z,9.00
2023-02-17T20:33:50.367Z,8.96
2023-02-17T20:36:18.388Z,8.93
2023-02-17T20:38:45.672Z,8.90
2023-02-17T20:41:17.646Z,8.88
2023-02-17T20:43:45.051Z,8.84
2023-02-17T20:46:24.604Z,8.83
2023-02-17T20:48:52.868Z,8.82
2023-02-17T20:51:20.211Z,8.77
2023-02-17T20:53:47.192Z,8.76
2023-02-17T20:56:23.244Z,8.74
2023-02-17T20:58:51.938Z,8.71
2023-02-17T21:01:19.945Z,8.69
2023-02-17T21:03:47.215Z,8.67
2023-02-17T21:06:29.231Z,8.66
2023-02-17T21:09:01.088Z,8.65
2023-02-17T21:11:28.819Z,8.61
2023-02-17T21:13:55.968Z,8.58
2023-02-17T21:16:31.022Z,8.55
2023-02-17T21:19:10.695Z,8.52
2023-02-17T21:22:06.272Z,8.47
2023-02-17T21:25:14.128Z,8.40
2023-02-17T21:27:42.032Z,8.37
2023-02-17T21:30:22.097Z,8.40
2023-02-17T21:32:55.471Z,8.40
2023-02-17T21:35:46.857Z,8.35
2023-02-17T21:38:30.585Z,8.31
2023-02-17T21:41:13.404Z,8.27
2023-02-17T21:43:59.566Z,8.23
2023-02-17T21:46:28.198Z,8.19
2023-02-17T21:49:00.845Z,8.16
2023-02-17T21:51:40.001Z,8.14
2023-02-17T21:54:28.560Z,8.11
2023-02-17T21:57:06.952Z,8.11
2023-02-17T21:59:54.519Z,8.11
2023-02-17T22:02:28.460Z,8.12
2023-02-17T22:05:03.489Z,8.14
2023-02-17T22:07:33.704Z,8.17
2023-02-17T22:10:05.045Z,8.17
2023-02-17T22:12:38.921Z,8.21
2023-02-17T22:15:23.895Z,8.22
2023-02-17T22:17:54.065Z,8.22
2023-02-17T22:20:25.075Z,8.23
2023-02-17T22:22:56.850Z,8.22
2023-02-17T22:25:36.761Z,8.22
2023-02-17T22:28:14.504Z,8.23
2023-02-17T22:30:42.214Z,8.22
2023-02-17T22:33:13.679Z,8.20
2023-02-17T22:35:59.411Z,8.19
2023-02-17T22:38:29.925Z,8.18
2023-02-17T22:41:17.426Z,8.17
2023-02-17T22:43:52.902Z,8.11
2023-02-17T22:46:39.302Z,8.10
2023-02-17T22:49:15.336Z,8.07
2023-02-17T22:51:56.769Z,8.07
2023-02-17T22:54:39.124Z,7.99
2023-02-17T22:57:13.147Z,7.99
2023-02-17T22:59:55.327Z,7.97
2023-02-17T23:02:39.078Z,7.91
2023-02-17T23:05:20.622Z,7.88
2023-02-17T23:07:52.797Z,7.84
2023-02-17T23:10:20.915Z,7.84
2023-02-17T23:12:51.837Z,7.83
2023-02-17T23:15:19.552Z,7.81
2023-02-17T23:18:05.813Z,7.80
2023-02-17T23:20:46.721Z,7.76
2023-02-17T23:23:29.498Z,7.74
2023-02-17T23:26:35.109Z,7.69
2023-02-17T23:29:16.341Z,7.62
2023-02-17T23:31:58.408Z,7.57
2023-02-17T23:35:15.131Z,7.54
2023-02-17T23:37:49.988Z,7.52
2023-02-17T23:40:26.358Z,7.50
2023-02-17T23:50:12.545Z,7.39
2023-02-17T23:53:11.949Z,7.39
2023-02-17T23:56:15.923Z,7.41
2023-02-17T23:59:13.094Z,7.43
